sensor_id;sensor_type;location;lat;lon;timestamp;temperature;humidity
2523;DHT22;1272;53.332;9.860;2023-06-22T00:00:57;17.50;99.90
2523;DHT22;1272;53.332;9.860;2023-06-22T00:03:24;17.50;99.90
2523;DHT22;1272;53.332;9.860;2023-06-22T00:05:51;17.50;99.90
2523;DHT22;1272;53.332;9.860;2023-06-22T00:08:17;17.40;99.90
2523;DHT22;1272;53.332;9.860;2023-06-22T00:10:44;17.40;99.90
2523;DHT22;1272;53.332;9.860;2023-06-22T00:13:11;17.30;1.00
2523;DHT22;1272;53.332;9.860;2023-06-22T00:15:39;17.30;1.00
2523;DHT22;1272;53.332;9.860;2023-06-22T00:18:06;17.30;1.00
2523;DHT22;1272;53.332;9.860;2023-06-22T00:20:32;17.30;1.00
2523;DHT22;1272;53.332;9.860;2023-06-22T00:22:59;17.30;1.00
2523;DHT22;1272;53.332;9.860;2023-06-22T00:25:25;17.30;1.00
2523;DHT22;1272;53.332;9.860;2023-06-22T00:27:51;17.30;1.00
2523;DHT22;1272;53.332;9.860;2023-06-22T00:30:17;17.30;1.00
2523;DHT22;1272;53.332;9.860;2023-06-22T00:32:44;17.20;1.00
2523;DHT22;1272;53.332;9.860;2023-06-22T00:35:11;17.10;1.00
2523;DHT22;1272;53.332;9.860;2023-06-22T00:37:38;17.00;1.00
2523;DHT22;1272;53.332;9.860;2023-06-22T00:40:06;17.00;30.70
2523;DHT22;1272;53.332;9.860;2023-06-22T00:42:34;16.90;95.30
2523;DHT22;1272;53.332;9.860;2023-06-22T00:45:00;16.90;99.90
2523;DHT22;1272;53.332;9.860;2023-06-22T00:47:27;16.90;99.90
2523;DHT22;1272;53.332;9.860;2023-06-22T00:49:53;16.90;99.90
2523;DHT22;1272;53.332;9.860;2023-06-22T00:52:22;16.90;99.90
2523;DHT22;1272;53.332;9.860;2023-06-22T00:54:52;16.80;99.90
2523;DHT22;1272;53.332;9.860;2023-06-22T00:57:19;16.90;99.90
2523;DHT22;1272;53.332;9.860;2023-06-22T00:59:46;16.90;99.90
2523;DHT22;1272;53.332;9.860;2023-06-22T01:02:13;16.90;99.90
2523;DHT22;1272;53.332;9.860;2023-06-22T01:04:39;16.80;99.90
2523;DHT22;1272;53.332;9.860;2023-06-22T01:09:54;16.80;99.90
2523;DHT22;1272;53.332;9.860;2023-06-22T01:12:23;16.80;99.90
2523;DHT22;1272;53.332;9.860;2023-06-22T01:15:08;16.80;99.90
2523;DHT22;1272;53.332;9.860;2023-06-22T01:17:36;16.80;99.90
2523;DHT22;1272;53.332;9.860;2023-06-22T01:20:06;16.80;99.90
2523;DHT22;1272;53.332;9.860;2023-06-22T01:28:45;16.70;99.90
2523;DHT22;1272;53.332;9.860;2023-06-22T01:31:16;16.70;99.90
2523;DHT22;1272;53.332;9.860;2023-06-22T01:33:44;16.60;99.90
2523;DHT22;1272;53.332;9.860;2023-06-22T01:36:11;16.60;99.90
2523;DHT22;1272;53.332;9.860;2023-06-22T01:38:38;16.60;99.90
2523;DHT22;1272;53.332;9.860;2023-06-22T01:41:04;16.50;99.90
2523;DHT22;1272;53.332;9.860;2023-06-22T01:43:32;16.50;99.90
2523;DHT22;1272;53.332;9.860;2023-06-22T01:46:00;16.50;99.90
2523;DHT22;1272;53.332;9.860;2023-06-22T01:48:26;16.50;99.90
2523;DHT22;1272;53.332;9.860;2023-06-22T01:50:53;16.50;99.90
2523;DHT22;1272;53.332;9.860;2023-06-22T01:53:21;16.50;99.90
2523;DHT22;1272;53.332;9.860;2023-06-22T01:55:47;16.50;99.90
2523;DHT22;1272;53.332;9.860;2023-06-22T01:58:13;16.50;99.90
2523;DHT22;1272;53.332;9.860;2023-06-22T02:00:44;16.50;99.90
2523;DHT22;1272;53.332;9.860;2023-06-22T02:03:17;16.50;99.90
2523;DHT22;1272;53.332;9.860;2023-06-22T02:05:55;16.40;99.90
2523;DHT22;1272;53.332;9.860;2023-06-22T02:08:29;16.40;99.90
2523;DHT22;1272;53.332;9.860;2023-06-22T02:10:58;16.40;99.90
2523;DHT22;1272;53.332;9.860;2023-06-22T02:13:25;16.40;99.90
2523;DHT22;1272;53.332;9.860;2023-06-22T02:15:51;16.40;99.90
2523;DHT22;1272;53.332;9.860;2023-06-22T02:18:17;16.40;99.90
2523;DHT22;1272;53.332;9.860;2023-06-22T02:20:43;16.30;99.90
2523;DHT22;1272;53.332;9.860;2023-06-22T02:23:09;16.30;99.90
2523;DHT22;1272;53.332;9.860;2023-06-22T02:25:35;16.30;99.90
2523;DHT22;1272;53.332;9.860;2023-06-22T02:28:01;16.20;99.90
2523;DHT22;1272;53.332;9.860;2023-06-22T02:30:27;16.20;99.90
2523;DHT22;1272;53.332;9.860;2023-06-22T02:32:53;16.10;99.90
2523;DHT22;1272;53.332;9.860;2023-06-22T02:35:28;16.10;99.90
2523;DHT22;1272;53.332;9.860;2023-06-22T02:38:00;16.10;99.90
2523;DHT22;1272;53.332;9.860;2023-06-22T02:40:27;16.10;99.90
2523;DHT22;1272;53.332;9.860;2023-06-22T02:42:53;16.00;99.90
2523;DHT22;1272;53.332;9.860;2023-06-22T02:45:19;16.00;99.90
2523;DHT22;1272;53.332;9.860;2023-06-22T02:47:45;16.00;99.90
2523;DHT22;1272;53.332;9.860;2023-06-22T02:50:10;16.00;99.90
2523;DHT22;1272;53.332;9.860;2023-06-22T02:52:36;15.90;99.90
2523;DHT22;1272;53.332;9.860;2023-06-22T02:55:03;15.90;99.90
2523;DHT22;1272;53.332;9.860;2023-06-22T02:57:29;15.90;99.90
2523;DHT22;1272;53.332;9.860;2023-06-22T02:59:55;15.80;99.90
2523;DHT22;1272;53.332;9.860;2023-06-22T03:02:21;15.80;99.90
2523;DHT22;1272;53.332;9.860;2023-06-22T03:04:47;15.80;99.90
2523;DHT22;1272;53.332;9.860;2023-06-22T03:07:14;15.80;99.90
2523;DHT22;1272;53.332;9.860;2023-06-22T03:09:40;15.70;99.90
2523;DHT22;1272;53.332;9.860;2023-06-22T03:12:08;15.70;99.90
2523;DHT22;1272;53.332;9.860;2023-06-22T03:14:34;15.70;99.90
2523;DHT22;1272;53.332;9.860;2023-06-22T03:17:00;15.70;99.90
2523;DHT22;1272;53.332;9.860;2023-06-22T03:19:29;15.70;99.90
2523;DHT22;1272;53.332;9.860;2023-06-22T03:21:57;15.70;99.90
2523;DHT22;1272;53.332;9.860;2023-06-22T03:24:23;15.70;99.90
2523;DHT22;1272;53.332;9.860;2023-06-22T03:26:48;15.70;99.90
2523;DHT22;1272;53.332;9.860;2023-06-22T03:29:14;15.60;99.90
2523;DHT22;1272;53.332;9.860;2023-06-22T03:31:41;15.70;99.90
2523;DHT22;1272;53.332;9.860;2023-06-22T03:34:06;15.60;99.90
2523;DHT22;1272;53.332;9.860;2023-06-22T03:36:32;15.60;99.90
2523;DHT22;1272;53.332;9.860;2023-06-22T03:38:58;15.70;99.90
2523;DHT22;1272;53.332;9.860;2023-06-22T03:41:24;15.70;99.90
2523;DHT22;1272;53.332;9.860;2023-06-22T03:43:49;15.70;99.90
2523;DHT22;1272;53.332;9.860;2023-06-22T03:46:15;15.80;99.90
2523;DHT22;1272;53.332;9.860;2023-06-22T03:48:41;15.80;99.90
2523;DHT22;1272;53.332;9.860;2023-06-22T03:51:07;15.80;99.90
2523;DHT22;1272;53.332;9.860;2023-06-22T03:53:32;15.90;99.90
2523;DHT22;1272;53.332;9.860;2023-06-22T03:55:58;15.90;99.90
2523;DHT22;1272;53.332;9.860;2023-06-22T03:58:24;15.90;99.90
2523;DHT22;1272;53.332;9.860;2023-06-22T04:00:51;15.90;99.90
2523;DHT22;1272;53.332;9.860;2023-06-22T04:03:17;16.00;99.90
2523;DHT22;1272;53.332;9.860;2023-06-22T04:05:47;16.00;99.90
2523;DHT22;1272;53.332;9.860;2023-06-22T04:08:14;16.10;99.90
2523;DHT22;1272;53.332;9.860;2023-06-22T04:10:40;16.10;99.90
2523;DHT22;1272;53.332;9.860;2023-06-22T04:13:06;16.10;99.90
2523;DHT22;1272;53.332;9.860;2023-06-22T04:15:32;16.20;99.90
2523;DHT22;1272;53.332;9.860;2023-06-22T04:17:58;16.30;99.90
2523;DHT22;1272;53.332;9.860;2023-06-22T04:20:23;16.40;99.90
2523;DHT22;1272;53.332;9.860;2023-06-22T04:22:54;16.40;99.90
2523;DHT22;1272;53.332;9.860;2023-06-22T04:25:21;16.50;99.90
2523;DHT22;1272;53.332;9.860;2023-06-22T04:27:47;16.50;99.90
2523;DHT22;1272;53.332;9.860;2023-06-22T04:30:14;16.60;99.90
2523;DHT22;1272;53.332;9.860;2023-06-22T04:32:43;16.60;99.90
2523;DHT22;1272;53.332;9.860;2023-06-22T04:35:10;16.60;99.90
2523;DHT22;1272;53.332;9.860;2023-06-22T04:37:36;16.70;99.90
2523;DHT22;1272;53.332;9.860;2023-06-22T04:40:02;16.70;99.90
2523;DHT22;1272;53.332;9.860;2023-06-22T04:42:30;16.70;99.90
2523;DHT22;1272;53.332;9.860;2023-06-22T04:44:55;16.70;99.90
2523;DHT22;1272;53.332;9.860;2023-06-22T04:47:21;16.80;99.90
2523;DHT22;1272;53.332;9.860;2023-06-22T04:49:47;16.80;99.90
2523;DHT22;1272;53.332;9.860;2023-06-22T04:52:13;16.90;99.90
2523;DHT22;1272;53.332;9.860;2023-06-22T04:54:43;17.00;99.90
2523;DHT22;1272;53.332;9.860;2023-06-22T04:57:13;17.10;99.90
2523;DHT22;1272;53.332;9.860;2023-06-22T04:59:40;17.10;99.90
2523;DHT22;1272;53.332;9.860;2023-06-22T05:02:07;17.20;99.90
2523;DHT22;1272;53.332;9.860;2023-06-22T05:04:34;17.20;99.90
2523;DHT22;1272;53.332;9.860;2023-06-22T05:07:02;17.30;99.90
2523;DHT22;1272;53.332;9.860;2023-06-22T05:09:28;17.40;99.90
2523;DHT22;1272;53.332;9.860;2023-06-22T05:11:54;17.50;99.90
2523;DHT22;1272;53.332;9.860;2023-06-22T05:14:22;17.50;99.90
2523;DHT22;1272;53.332;9.860;2023-06-22T05:16:49;17.60;99.90
2523;DHT22;1272;53.332;9.860;2023-06-22T05:19:14;17.60;99.90
2523;DHT22;1272;53.332;9.860;2023-06-22T05:21:40;17.70;99.90
2523;DHT22;1272;53.332;9.860;2023-06-22T05:24:06;17.80;99.90
2523;DHT22;1272;53.332;9.860;2023-06-22T05:26:33;17.90;99.90
2523;DHT22;1272;53.332;9.860;2023-06-22T05:29:00;17.90;99.90
2523;DHT22;1272;53.332;9.860;2023-06-22T05:31:26;18.00;99.90
2523;DHT22;1272;53.332;9.860;2023-06-22T05:33:54;18.00;99.90
2523;DHT22;1272;53.332;9.860;2023-06-22T05:36:20;18.10;99.90
2523;DHT22;1272;53.332;9.860;2023-06-22T05:38:46;18.20;15.30
2523;DHT22;1272;53.332;9.860;2023-06-22T05:41:13;18.20;1.00
2523;DHT22;1272;53.332;9.860;2023-06-22T05:43:39;18.30;99.90
2523;DHT22;1272;53.332;9.860;2023-06-22T05:46:06;18.40;99.90
2523;DHT22;1272;53.332;9.860;2023-06-22T05:48:32;18.40;99.90
2523;DHT22;1272;53.332;9.860;2023-06-22T05:50:58;18.60;1.00
2523;DHT22;1272;53.332;9.860;2023-06-22T05:53:24;18.70;99.90
2523;DHT22;1272;53.332;9.860;2023-06-22T05:55:49;18.70;99.90
2523;DHT22;1272;53.332;9.860;2023-06-22T05:58:15;18.80;99.90
2523;DHT22;1272;53.332;9.860;2023-06-22T06:00:42;18.80;99.90
2523;DHT22;1272;53.332;9.860;2023-06-22T06:03:09;18.80;99.90
2523;DHT22;1272;53.332;9.860;2023-06-22T06:05:35;18.90;99.90
2523;DHT22;1272;53.332;9.860;2023-06-22T06:08:03;19.00;99.90
2523;DHT22;1272;53.332;9.860;2023-06-22T06:10:33;19.00;99.90
2523;DHT22;1272;53.332;9.860;2023-06-22T06:12:59;19.20;99.90
2523;DHT22;1272;53.332;9.860;2023-06-22T06:15:30;19.20;1.00
2523;DHT22;1272;53.332;9.860;2023-06-22T06:17:55;19.30;1.00
2523;DHT22;1272;53.332;9.860;2023-06-22T06:20:23;19.30;1.00
2523;DHT22;1272;53.332;9.860;2023-06-22T06:22:49;19.30;1.00
2523;DHT22;1272;53.332;9.860;2023-06-22T06:25:15;19.40;99.90
2523;DHT22;1272;53.332;9.860;2023-06-22T06:27:46;19.50;99.90
2523;DHT22;1272;53.332;9.860;2023-06-22T06:30:13;19.60;42.50
2523;DHT22;1272;53.332;9.860;2023-06-22T06:32:40;19.60;1.00
2523;DHT22;1272;53.332;9.860;2023-06-22T06:35:07;19.60;99.90
2523;DHT22;1272;53.332;9.860;2023-06-22T06:37:37;19.70;99.90
2523;DHT22;1272;53.332;9.860;2023-06-22T06:40:07;19.80;1.00
2523;DHT22;1272;53.332;9.860;2023-06-22T06:42:36;19.90;1.00
2523;DHT22;1272;53.332;9.860;2023-06-22T06:45:04;20.00;1.00
2523;DHT22;1272;53.332;9.860;2023-06-22T06:47:30;20.10;1.00
2523;DHT22;1272;53.332;9.860;2023-06-22T06:49:56;20.20;1.00
2523;DHT22;1272;53.332;9.860;2023-06-22T06:52:22;20.30;99.90
2523;DHT22;1272;53.332;9.860;2023-06-22T06:54:47;20.50;95.10
2523;DHT22;1272;53.332;9.860;2023-06-22T06:57:13;20.60;40.00
2523;DHT22;1272;53.332;9.860;2023-06-22T06:59:40;20.70;39.40
2523;DHT22;1272;53.332;9.860;2023-06-22T07:02:06;20.80;62.00
2523;DHT22;1272;53.332;9.860;2023-06-22T07:04:31;20.90;2.80
2523;DHT22;1272;53.332;9.860;2023-06-22T07:07:00;21.00;1.00
2523;DHT22;1272;53.332;9.860;2023-06-22T07:09:26;21.10;1.00
2523;DHT22;1272;53.332;9.860;2023-06-22T07:11:52;21.30;99.90
2523;DHT22;1272;53.332;9.860;2023-06-22T07:14:17;21.30;99.90
2523;DHT22;1272;53.332;9.860;2023-06-22T07:16:43;21.30;1.00
2523;DHT22;1272;53.332;9.860;2023-06-22T07:19:11;21.30;1.00
2523;DHT22;1272;53.332;9.860;2023-06-22T07:21:37;21.30;1.00
2523;DHT22;1272;53.332;9.860;2023-06-22T07:24:05;21.30;1.00
2523;DHT22;1272;53.332;9.860;2023-06-22T07:26:31;21.40;1.00
2523;DHT22;1272;53.332;9.860;2023-06-22T07:28:57;21.40;99.90
2523;DHT22;1272;53.332;9.860;2023-06-22T07:31:26;21.50;1.00
2523;DHT22;1272;53.332;9.860;2023-06-22T07:33:52;21.50;1.00
2523;DHT22;1272;53.332;9.860;2023-06-22T07:36:18;21.60;1.00
2523;DHT22;1272;53.332;9.860;2023-06-22T07:38:44;21.60;1.00
2523;DHT22;1272;53.332;9.860;2023-06-22T07:41:10;21.60;1.00
2523;DHT22;1272;53.332;9.860;2023-06-22T07:43:36;21.60;1.00
2523;DHT22;1272;53.332;9.860;2023-06-22T07:46:06;21.70;1.00
2523;DHT22;1272;53.332;9.860;2023-06-22T07:48:32;21.90;99.90
2523;DHT22;1272;53.332;9.860;2023-06-22T07:50:57;22.00;99.90
2523;DHT22;1272;53.332;9.860;2023-06-22T07:53:23;22.10;99.90
2523;DHT22;1272;53.332;9.860;2023-06-22T07:55:50;22.20;99.90
2523;DHT22;1272;53.332;9.860;2023-06-22T07:58:16;22.30;99.90
2523;DHT22;1272;53.332;9.860;2023-06-22T08:00:44;22.40;99.90
2523;DHT22;1272;53.332;9.860;2023-06-22T08:03:10;22.30;99.90
2523;DHT22;1272;53.332;9.860;2023-06-22T08:05:35;22.40;99.90
2523;DHT22;1272;53.332;9.860;2023-06-22T08:08:01;22.40;99.90
2523;DHT22;1272;53.332;9.860;2023-06-22T08:10:27;22.40;99.90
2523;DHT22;1272;53.332;9.860;2023-06-22T08:12:52;22.40;99.90
2523;DHT22;1272;53.332;9.860;2023-06-22T08:15:18;22.40;99.90
2523;DHT22;1272;53.332;9.860;2023-06-22T08:17:45;22.40;99.90
2523;DHT22;1272;53.332;9.860;2023-06-22T08:20:13;22.40;99.90
2523;DHT22;1272;53.332;9.860;2023-06-22T08:22:40;22.50;99.90
2523;DHT22;1272;53.332;9.860;2023-06-22T08:25:07;22.60;99.90
2523;DHT22;1272;53.332;9.860;2023-06-22T08:27:33;22.70;99.90
2523;DHT22;1272;53.332;9.860;2023-06-22T08:29:59;22.90;99.90
2523;DHT22;1272;53.332;9.860;2023-06-22T08:32:26;23.00;99.90
2523;DHT22;1272;53.332;9.860;2023-06-22T08:34:54;23.10;99.90
2523;DHT22;1272;53.332;9.860;2023-06-22T08:37:19;23.10;99.90
2523;DHT22;1272;53.332;9.860;2023-06-22T08:39:45;23.20;99.90
2523;DHT22;1272;53.332;9.860;2023-06-22T08:42:12;23.20;99.90
2523;DHT22;1272;53.332;9.860;2023-06-22T08:44:38;23.30;98.40
2523;DHT22;1272;53.332;9.860;2023-06-22T08:47:04;23.40;90.10
2523;DHT22;1272;53.332;9.860;2023-06-22T08:49:29;23.40;99.90
2523;DHT22;1272;53.332;9.860;2023-06-22T08:51:55;23.50;92.20
2523;DHT22;1272;53.332;9.860;2023-06-22T08:54:22;23.70;99.90
2523;DHT22;1272;53.332;9.860;2023-06-22T08:56:48;23.80;52.30
2523;DHT22;1272;53.332;9.860;2023-06-22T08:59:14;23.90;81.10
2523;DHT22;1272;53.332;9.860;2023-06-22T09:01:39;24.10;34.60
2523;DHT22;1272;53.332;9.860;2023-06-22T09:04:05;24.20;24.80
2523;DHT22;1272;53.332;9.860;2023-06-22T09:06:33;24.30;36.40
2523;DHT22;1272;53.332;9.860;2023-06-22T09:08:58;24.40;1.00
2523;DHT22;1272;53.332;9.860;2023-06-22T09:11:26;24.50;1.00
2523;DHT22;1272;53.332;9.860;2023-06-22T09:13:52;24.50;32.10
2523;DHT22;1272;53.332;9.860;2023-06-22T09:16:19;24.70;1.00
2523;DHT22;1272;53.332;9.860;2023-06-22T09:18:48;24.90;1.00
2523;DHT22;1272;53.332;9.860;2023-06-22T09:21:13;25.00;1.00
2523;DHT22;1272;53.332;9.860;2023-06-22T09:23:39;25.10;1.00
2523;DHT22;1272;53.332;9.860;2023-06-22T09:26:05;25.30;1.00
2523;DHT22;1272;53.332;9.860;2023-06-22T09:28:31;25.40;1.00
2523;DHT22;1272;53.332;9.860;2023-06-22T09:30:57;25.50;1.00
2523;DHT22;1272;53.332;9.860;2023-06-22T09:33:25;25.50;1.00
2523;DHT22;1272;53.332;9.860;2023-06-22T09:35:51;25.60;1.00
2523;DHT22;1272;53.332;9.860;2023-06-22T09:38:17;25.70;1.00
2523;DHT22;1272;53.332;9.860;2023-06-22T09:40:43;25.80;1.00
2523;DHT22;1272;53.332;9.860;2023-06-22T09:43:08;25.90;1.00
2523;DHT22;1272;53.332;9.860;2023-06-22T09:45:34;26.00;1.00
2523;DHT22;1272;53.332;9.860;2023-06-22T09:48:00;26.10;1.00
2523;DHT22;1272;53.332;9.860;2023-06-22T09:50:26;26.20;1.00
2523;DHT22;1272;53.332;9.860;2023-06-22T09:52:52;26.30;1.00
2523;DHT22;1272;53.332;9.860;2023-06-22T09:55:21;26.40;1.00
2523;DHT22;1272;53.332;9.860;2023-06-22T09:57:47;26.50;1.00
2523;DHT22;1272;53.332;9.860;2023-06-22T10:00:13;26.70;1.00
2523;DHT22;1272;53.332;9.860;2023-06-22T10:02:43;26.70;1.00
2523;DHT22;1272;53.332;9.860;2023-06-22T10:05:09;26.80;1.00
2523;DHT22;1272;53.332;9.860;2023-06-22T10:07:34;27.00;1.00
2523;DHT22;1272;53.332;9.860;2023-06-22T10:10:06;27.10;1.00
2523;DHT22;1272;53.332;9.860;2023-06-22T10:12:31;27.20;1.00
2523;DHT22;1272;53.332;9.860;2023-06-22T10:14:57;27.30;1.00
2523;DHT22;1272;53.332;9.860;2023-06-22T10:17:23;27.40;1.00
2523;DHT22;1272;53.332;9.860;2023-06-22T10:19:48;27.40;1.00
2523;DHT22;1272;53.332;9.860;2023-06-22T10:22:14;27.40;1.00
2523;DHT22;1272;53.332;9.860;2023-06-22T10:24:40;27.60;1.00
2523;DHT22;1272;53.332;9.860;2023-06-22T10:27:10;27.70;1.00
2523;DHT22;1272;53.332;9.860;2023-06-22T10:29:37;27.90;1.00
2523;DHT22;1272;53.332;9.860;2023-06-22T10:32:03;28.00;1.00
2523;DHT22;1272;53.332;9.860;2023-06-22T10:34:28;28.00;1.00
2523;DHT22;1272;53.332;9.860;2023-06-22T10:36:54;28.20;1.00
2523;DHT22;1272;53.332;9.860;2023-06-22T10:39:20;28.10;1.00
2523;DHT22;1272;53.332;9.860;2023-06-22T10:41:46;28.00;1.00
2523;DHT22;1272;53.332;9.860;2023-06-22T10:44:12;28.10;1.00
2523;DHT22;1272;53.332;9.860;2023-06-22T10:46:38;28.30;1.00
2523;DHT22;1272;53.332;9.860;2023-06-22T10:49:03;28.50;1.00
2523;DHT22;1272;53.332;9.860;2023-06-22T10:51:29;28.40;1.00
2523;DHT22;1272;53.332;9.860;2023-06-22T10:53:56;28.50;1.00
2523;DHT22;1272;53.332;9.860;2023-06-22T10:56:22;28.60;1.00
2523;DHT22;1272;53.332;9.860;2023-06-22T10:58:48;28.80;1.00
2523;DHT22;1272;53.332;9.860;2023-06-22T11:01:14;28.90;1.00
2523;DHT22;1272;53.332;9.860;2023-06-22T11:03:39;28.70;1.00
2523;DHT22;1272;53.332;9.860;2023-06-22T11:06:05;28.50;1.00
2523;DHT22;1272;53.332;9.860;2023-06-22T11:08:31;28.40;1.00
2523;DHT22;1272;53.332;9.860;2023-06-22T11:10:57;28.40;1.00
2523;DHT22;1272;53.332;9.860;2023-06-22T11:13:22;28.40;1.00
2523;DHT22;1272;53.332;9.860;2023-06-22T11:15:48;28.50;1.00
2523;DHT22;1272;53.332;9.860;2023-06-22T11:18:14;28.80;1.00
2523;DHT22;1272;53.332;9.860;2023-06-22T11:20:39;29.00;1.00
2523;DHT22;1272;53.332;9.860;2023-06-22T11:23:06;29.30;1.00
2523;DHT22;1272;53.332;9.860;2023-06-22T11:25:32;29.50;1.00
2523;DHT22;1272;53.332;9.860;2023-06-22T11:28:04;29.50;1.00
2523;DHT22;1272;53.332;9.860;2023-06-22T11:30:30;29.50;1.00
2523;DHT22;1272;53.332;9.860;2023-06-22T11:32:59;29.40;1.00
2523;DHT22;1272;53.332;9.860;2023-06-22T11:35:25;29.70;1.00
2523;DHT22;1272;53.332;9.860;2023-06-22T11:37:51;30.10;1.00
2523;DHT22;1272;53.332;9.860;2023-06-22T11:40:17;30.40;1.00
2523;DHT22;1272;53.332;9.860;2023-06-22T11:42:43;30.40;1.00
2523;DHT22;1272;53.332;9.860;2023-06-22T11:45:09;30.50;1.00
2523;DHT22;1272;53.332;9.860;2023-06-22T11:47:35;30.60;1.00
2523;DHT22;1272;53.332;9.860;2023-06-22T11:50:02;30.60;1.00
2523;DHT22;1272;53.332;9.860;2023-06-22T11:52:28;30.70;1.00
2523;DHT22;1272;53.332;9.860;2023-06-22T11:54:54;30.70;1.00
2523;DHT22;1272;53.332;9.860;2023-06-22T11:57:19;30.60;1.00
2523;DHT22;1272;53.332;9.860;2023-06-22T11:59:45;30.40;1.00
2523;DHT22;1272;53.332;9.860;2023-06-22T12:02:11;29.90;1.00
2523;DHT22;1272;53.332;9.860;2023-06-22T12:04:36;29.60;1.00
2523;DHT22;1272;53.332;9.860;2023-06-22T12:07:03;29.30;1.00
2523;DHT22;1272;53.332;9.860;2023-06-22T12:09:29;29.10;1.00
2523;DHT22;1272;53.332;9.860;2023-06-22T12:11:55;28.80;1.00
2523;DHT22;1272;53.332;9.860;2023-06-22T12:14:21;28.60;1.00
2523;DHT22;1272;53.332;9.860;2023-06-22T12:16:47;28.50;1.00
2523;DHT22;1272;53.332;9.860;2023-06-22T12:19:12;28.30;1.00
2523;DHT22;1272;53.332;9.860;2023-06-22T12:21:38;28.20;1.00
2523;DHT22;1272;53.332;9.860;2023-06-22T12:24:06;28.20;1.00
2523;DHT22;1272;53.332;9.860;2023-06-22T12:26:31;28.20;1.00
2523;DHT22;1272;53.332;9.860;2023-06-22T12:28:57;28.20;1.00
2523;DHT22;1272;53.332;9.860;2023-06-22T12:31:23;28.20;1.00
2523;DHT22;1272;53.332;9.860;2023-06-22T12:33:48;28.20;1.00
2523;DHT22;1272;53.332;9.860;2023-06-22T12:36:14;28.30;1.00
2523;DHT22;1272;53.332;9.860;2023-06-22T12:38:42;28.20;1.00
2523;DHT22;1272;53.332;9.860;2023-06-22T12:41:07;28.10;1.00
2523;DHT22;1272;53.332;9.860;2023-06-22T12:43:34;28.00;1.00
2523;DHT22;1272;53.332;9.860;2023-06-22T12:46:00;27.90;1.00
2523;DHT22;1272;53.332;9.860;2023-06-22T12:48:27;27.80;1.00
2523;DHT22;1272;53.332;9.860;2023-06-22T12:50:53;27.70;1.00
2523;DHT22;1272;53.332;9.860;2023-06-22T12:53:19;27.60;1.00
2523;DHT22;1272;53.332;9.860;2023-06-22T12:55:45;27.50;1.00
2523;DHT22;1272;53.332;9.860;2023-06-22T12:58:10;27.40;1.00
2523;DHT22;1272;53.332;9.860;2023-06-22T13:00:37;27.40;1.00
2523;DHT22;1272;53.332;9.860;2023-06-22T13:03:03;27.30;1.00
2523;DHT22;1272;53.332;9.860;2023-06-22T13:05:29;27.10;1.00
2523;DHT22;1272;53.332;9.860;2023-06-22T13:07:56;27.00;1.00
2523;DHT22;1272;53.332;9.860;2023-06-22T13:10:21;27.00;1.00
2523;DHT22;1272;53.332;9.860;2023-06-22T13:12:47;27.00;1.00
2523;DHT22;1272;53.332;9.860;2023-06-22T13:15:13;26.90;1.00
2523;DHT22;1272;53.332;9.860;2023-06-22T13:17:38;26.90;1.00
2523;DHT22;1272;53.332;9.860;2023-06-22T13:20:05;26.80;1.00
2523;DHT22;1272;53.332;9.860;2023-06-22T13:22:32;26.80;1.00
2523;DHT22;1272;53.332;9.860;2023-06-22T13:25:00;26.70;1.00
2523;DHT22;1272;53.332;9.860;2023-06-22T13:27:26;26.70;1.00
2523;DHT22;1272;53.332;9.860;2023-06-22T13:29:52;26.70;1.00
2523;DHT22;1272;53.332;9.860;2023-06-22T13:32:18;26.70;1.00
2523;DHT22;1272;53.332;9.860;2023-06-22T13:34:44;26.70;1.00
2523;DHT22;1272;53.332;9.860;2023-06-22T13:37:09;26.70;1.00
2523;DHT22;1272;53.332;9.860;2023-06-22T13:39:35;26.60;1.00
2523;DHT22;1272;53.332;9.860;2023-06-22T13:42:01;26.60;1.00
2523;DHT22;1272;53.332;9.860;2023-06-22T13:44:26;26.50;1.00
2523;DHT22;1272;53.332;9.860;2023-06-22T13:46:55;26.40;1.00
2523;DHT22;1272;53.332;9.860;2023-06-22T13:49:21;26.40;1.00
2523;DHT22;1272;53.332;9.860;2023-06-22T13:51:50;26.30;1.00
2523;DHT22;1272;53.332;9.860;2023-06-22T13:54:16;26.30;1.00
2523;DHT22;1272;53.332;9.860;2023-06-22T13:56:42;26.40;1.00
2523;DHT22;1272;53.332;9.860;2023-06-22T13:59:07;26.30;1.00
2523;DHT22;1272;53.332;9.860;2023-06-22T14:01:35;26.30;1.00
2523;DHT22;1272;53.332;9.860;2023-06-22T14:04:01;26.30;1.00
2523;DHT22;1272;53.332;9.860;2023-06-22T14:06:29;26.40;1.00
2523;DHT22;1272;53.332;9.860;2023-06-22T14:08:55;26.40;1.00
2523;DHT22;1272;53.332;9.860;2023-06-22T14:11:21;26.50;1.00
2523;DHT22;1272;53.332;9.860;2023-06-22T14:13:50;26.50;1.00
2523;DHT22;1272;53.332;9.860;2023-06-22T14:16:16;26.40;1.00
2523;DHT22;1272;53.332;9.860;2023-06-22T14:18:41;26.40;1.00
2523;DHT22;1272;53.332;9.860;2023-06-22T14:21:07;26.50;1.00
2523;DHT22;1272;53.332;9.860;2023-06-22T14:23:33;26.50;1.00
2523;DHT22;1272;53.332;9.860;2023-06-22T14:26:02;26.50;1.00
2523;DHT22;1272;53.332;9.860;2023-06-22T14:28:27;26.50;1.00
2523;DHT22;1272;53.332;9.860;2023-06-22T14:30:53;26.50;1.00
2523;DHT22;1272;53.332;9.860;2023-06-22T14:33:19;26.50;1.00
2523;DHT22;1272;53.332;9.860;2023-06-22T14:35:44;26.50;1.00
2523;DHT22;1272;53.332;9.860;2023-06-22T14:38:10;26.50;1.00
2523;DHT22;1272;53.332;9.860;2023-06-22T14:40:36;26.50;1.00
2523;DHT22;1272;53.332;9.860;2023-06-22T14:43:01;26.60;1.00
2523;DHT22;1272;53.332;9.860;2023-06-22T14:45:27;26.70;1.00
2523;DHT22;1272;53.332;9.860;2023-06-22T14:47:53;26.60;1.00
2523;DHT22;1272;53.332;9.860;2023-06-22T14:50:18;26.60;1.00
2523;DHT22;1272;53.332;9.860;2023-06-22T14:52:44;26.60;1.00
2523;DHT22;1272;53.332;9.860;2023-06-22T14:55:10;26.50;1.00
2523;DHT22;1272;53.332;9.860;2023-06-22T14:57:36;26.50;1.00
2523;DHT22;1272;53.332;9.860;2023-06-22T15:00:01;26.50;1.00
2523;DHT22;1272;53.332;9.860;2023-06-22T15:02:28;26.50;1.00
2523;DHT22;1272;53.332;9.860;2023-06-22T15:04:54;26.50;1.00
2523;DHT22;1272;53.332;9.860;2023-06-22T15:07:20;26.40;1.00
2523;DHT22;1272;53.332;9.860;2023-06-22T15:09:46;26.30;1.00
2523;DHT22;1272;53.332;9.860;2023-06-22T15:12:12;26.30;1.00
2523;DHT22;1272;53.332;9.860;2023-06-22T15:14:42;26.20;1.00
2523;DHT22;1272;53.332;9.860;2023-06-22T15:17:08;26.10;1.00
2523;DHT22;1272;53.332;9.860;2023-06-22T15:19:37;26.00;1.00
2523;DHT22;1272;53.332;9.860;2023-06-22T15:22:07;26.00;1.00
2523;DHT22;1272;53.332;9.860;2023-06-22T15:24:33;26.00;1.00
2523;DHT22;1272;53.332;9.860;2023-06-22T15:26:59;26.00;1.00
2523;DHT22;1272;53.332;9.860;2023-06-22T15:29:26;26.00;1.00
2523;DHT22;1272;53.332;9.860;2023-06-22T15:31:52;25.90;1.00
2523;DHT22;1272;53.332;9.860;2023-06-22T15:34:18;25.90;1.00
2523;DHT22;1272;53.332;9.860;2023-06-22T15:36:44;25.90;1.00
2523;DHT22;1272;53.332;9.860;2023-06-22T15:39:10;25.80;1.00
2523;DHT22;1272;53.332;9.860;2023-06-22T15:41:36;25.80;1.00
2523;DHT22;1272;53.332;9.860;2023-06-22T15:44:04;25.90;1.00
2523;DHT22;1272;53.332;9.860;2023-06-22T15:46:30;25.80;1.00
2523;DHT22;1272;53.332;9.860;2023-06-22T15:48:55;25.70;1.00
2523;DHT22;1272;53.332;9.860;2023-06-22T15:51:21;25.70;1.00
2523;DHT22;1272;53.332;9.860;2023-06-22T15:53:47;25.60;1.00
2523;DHT22;1272;53.332;9.860;2023-06-22T15:56:12;25.60;1.00
2523;DHT22;1272;53.332;9.860;2023-06-22T15:58:38;25.50;1.00
2523;DHT22;1272;53.332;9.860;2023-06-22T16:01:05;25.50;1.00
2523;DHT22;1272;53.332;9.860;2023-06-22T16:03:31;25.60;1.00
2523;DHT22;1272;53.332;9.860;2023-06-22T16:05:57;25.50;1.00
2523;DHT22;1272;53.332;9.860;2023-06-22T16:08:23;25.50;1.00
2523;DHT22;1272;53.332;9.860;2023-06-22T16:10:51;25.50;1.00
2523;DHT22;1272;53.332;9.860;2023-06-22T16:13:17;25.50;1.00